Time;durP1;ratioP1;P1;durP2;ratioP2;P2;SDS_P1;SDS_P2;PMS_P1;PMS_P2;Temp;Humidity;BMP_temperature;BMP_pressure;BME280_temperature;BME280_humidity;BME280_pressure;Samples;Min_cycle;Max_cycle;Signal;HPM_P1;HPM_P2
2021/01/28 00:00:22;;;;;;;24.60;17.10;;;7.10;99.10;;;;;;5136853;27;20441;-71
2021/01/28 00:02:50;;;;;;;27.87;17.90;;;7.10;99.20;;;;;;5136793;27;20438;-71
2021/01/28 00:05:17;;;;;;;24.57;17.77;;;7.10;99.20;;;;;;5136571;27;20481;-71
2021/01/28 00:07:43;;;;;;;29.30;17.30;;;7.10;99.20;;;;;;5136606;27;20473;-71
2021/01/28 00:10:11;;;;;;;23.77;17.57;;;7.20;99.10;;;;;;5136654;27;20438;-71
2021/01/28 00:12:37;;;;;;;26.73;18.70;;;7.20;98.90;;;;;;5136648;27;20503;-71
2021/01/28 00:15:05;;;;;;;26.80;18.07;;;7.20;98.70;;;;;;5136200;27;21052;-71
2021/01/28 00:17:31;;;;;;;30.20;17.90;;;7.20;98.60;;;;;;5136229;27;20932;-71
2021/01/28 00:19:58;;;;;;;23.60;16.50;;;7.20;98.60;;;;;;5136512;27;20422;-71
2021/01/28 00:22:24;;;;;;;25.63;17.40;;;7.20;98.50;;;;;;5136485;27;20442;-71
2021/01/28 00:24:50;;;;;;;26.37;17.10;;;7.20;98.60;;;;;;5136000;27;21015;-71
2021/01/28 00:27:17;;;;;;;22.73;17.60;;;7.20;98.50;;;;;;5136272;27;20438;-71
2021/01/28 00:29:43;;;;;;;24.93;17.03;;;7.10;98.70;;;;;;5136291;27;20487;-71
2021/01/28 00:32:10;;;;;;;24.47;15.87;;;7.20;98.80;;;;;;5136633;27;20448;-71
2021/01/28 00:34:36;;;;;;;23.77;16.33;;;7.20;98.70;;;;;;5135747;27;20465;-71
2021/01/28 00:37:03;;;;;;;24.73;16.27;;;7.10;98.60;;;;;;5136104;27;20446;-71
2021/01/28 00:39:30;;;;;;;23.73;16.07;;;7.10;98.70;;;;;;5135860;27;20437;-71
2021/01/28 00:41:56;;;;;;;24.43;16.57;;;7.10;98.80;;;;;;5136034;27;20449;-71
2021/01/28 00:44:22;;;;;;;28.93;16.70;;;7.10;98.90;;;;;;5135955;27;20837;-71
2021/01/28 00:46:48;;;;;;;25.03;16.13;;;7.10;98.90;;;;;;5135983;27;20445;-71
2021/01/28 00:49:14;;;;;;;21.87;15.27;;;7.10;98.80;;;;;;5135866;27;20477;-72
2021/01/28 00:51:40;;;;;;;29.13;15.70;;;7.10;98.90;;;;;;5135838;27;20449;-71
2021/01/28 00:54:08;;;;;;;28.37;15.80;;;7.20;98.90;;;;;;5135756;27;20442;-72
2021/01/28 00:56:34;;;;;;;22.83;14.83;;;7.20;98.90;;;;;;5135475;27;20449;-71
2021/01/28 00:59:00;;;;;;;23.50;15.20;;;7.20;98.90;;;;;;5135710;27;20784;-72
2021/01/28 01:01:26;;;;;;;24.00;15.03;;;7.20;98.90;;;;;;5135491;27;20453;-72
2021/01/28 01:03:52;;;;;;;21.80;14.83;;;7.20;98.80;;;;;;5136434;27;20832;-72
2021/01/28 01:06:18;;;;;;;21.40;14.63;;;7.20;98.80;;;;;;5135232;27;20482;-71
2021/01/28 01:08:45;;;;;;;19.20;13.87;;;7.30;98.80;;;;;;5135133;27;20474;-71
2021/01/28 01:11:13;;;;;;;19.20;13.87;;;7.30;98.70;;;;;;5135470;27;20442;-71
2021/01/28 01:13:41;;;;;;;19.17;12.37;;;7.30;98.50;;;;;;5135464;27;20862;-71
2021/01/28 01:16:11;;;;;;;18.00;12.30;;;7.40;98.50;;;;;;5135387;27;20458;-71
2021/01/28 01:18:38;;;;;;;19.03;13.10;;;7.40;98.40;;;;;;5135407;27;20422;-71
2021/01/28 01:21:05;;;;;;;19.37;13.30;;;7.40;98.20;;;;;;5134932;27;20448;-71
2021/01/28 01:23:32;;;;;;;21.93;13.03;;;7.40;98.10;;;;;;5135307;27;20442;-71
2021/01/28 01:25:59;;;;;;;21.43;12.77;;;7.40;98.10;;;;;;5135156;27;20532;-71
2021/01/28 01:28:27;;;;;;;17.93;13.10;;;7.40;98.20;;;;;;5135036;27;20476;-71
2021/01/28 01:30:54;;;;;;;21.20;14.70;;;7.40;98.20;;;;;;5134758;27;20441;-71
2021/01/28 01:33:20;;;;;;;19.50;13.43;;;7.40;98.20;;;;;;5134884;27;20449;-71
2021/01/28 01:35:46;;;;;;;17.53;14.10;;;7.40;98.20;;;;;;5134525;27;20987;-71
2021/01/28 01:38:12;;;;;;;18.43;13.03;;;7.40;98.30;;;;;;5134521;27;20807;-71
2021/01/28 01:40:42;;;;;;;18.27;13.00;;;7.40;98.30;;;;;;5134828;27;20491;-71
2021/01/28 01:43:10;;;;;;;16.47;12.57;;;7.40;98.30;;;;;;5134772;27;20446;-72
2021/01/28 01:45:41;;;;;;;16.80;13.80;;;7.40;98.40;;;;;;5134766;27;20819;-72
2021/01/28 01:48:11;;;;;;;16.20;13.13;;;7.40;98.30;;;;;;5134335;27;20958;-72
2021/01/28 01:50:49;;;;;;;20.23;13.97;;;7.40;98.40;;;;;;5134698;27;20445;-72
2021/01/28 01:53:20;;;;;;;19.53;15.20;;;7.40;98.50;;;;;;5134156;27;20421;-71
2021/01/28 01:55:50;;;;;;;19.87;13.67;;;7.50;98.50;;;;;;5134771;27;20464;-71
2021/01/28 01:58:30;;;;;;;17.17;14.10;;;7.50;98.50;;;;;;5134674;27;20427;-71
2021/01/28 02:00:57;;;;;;;20.03;14.20;;;7.50;98.50;;;;;;5134681;27;20422;-71
2021/01/28 02:03:24;;;;;;;17.87;14.03;;;7.50;98.60;;;;;;5134736;27;20449;-71
2021/01/28 02:06:02;;;;;;;22.93;15.47;;;7.40;98.50;;;;;;5134319;27;20488;-71
2021/01/28 02:08:28;;;;;;;19.30;14.60;;;7.50;98.60;;;;;;5134315;27;20873;-72
2021/01/28 02:10:55;;;;;;;21.33;14.47;;;7.50;98.60;;;;;;5134669;27;20453;-70
2021/01/28 02:13:21;;;;;;;20.77;14.60;;;7.50;98.70;;;;;;5134314;27;20497;-72
2021/01/28 02:15:49;;;;;;;24.33;14.23;;;7.50;98.70;;;;;;5134526;28;20461;-71
2021/01/28 02:18:16;;;;;;;22.10;14.37;;;7.50;98.70;;;;;;5134656;28;20800;-72
2021/01/28 02:21:01;;;;;;;20.80;14.30;;;7.50;98.70;;;;;;5134495;28;20434;-72
2021/01/28 02:23:49;;;;;;;28.03;14.80;;;7.50;98.70;;;;;;5135126;28;20418;-72
2021/01/28 02:26:16;;;;;;;19.77;14.97;;;7.50;98.70;;;;;;5133991;28;20458;-72
2021/01/28 02:28:42;;;;;;;25.70;15.13;;;7.50;98.70;;;;;;5133847;28;20879;-72
2021/01/28 02:31:10;;;;;;;20.30;13.70;;;7.50;98.60;;;;;;5134360;28;20449;-72
2021/01/28 02:33:41;;;;;;;21.73;13.73;;;7.60;98.60;;;;;;5134315;28;20877;-72
2021/01/28 02:36:08;;;;;;;17.63;13.83;;;7.60;98.70;;;;;;5134210;28;20458;-72
2021/01/28 02:38:34;;;;;;;20.83;12.80;;;7.50;98.60;;;;;;5134206;28;20445;-72
2021/01/28 02:41:01;;;;;;;20.73;13.20;;;7.60;98.70;;;;;;5133900;28;20438;-72
2021/01/28 02:43:28;;;;;;;21.13;12.33;;;7.60;98.70;;;;;;5134127;28;20469;-72
2021/01/28 02:46:08;;;;;;;20.03;12.90;;;7.50;98.70;;;;;;5134093;28;20462;-72
2021/01/28 02:48:34;;;;;;;19.80;11.80;;;7.50;98.70;;;;;;5134082;28;20474;-72
2021/01/28 02:51:01;;;;;;;15.50;12.67;;;7.50;98.70;;;;;;5134136;28;20442;-72
2021/01/28 02:53:33;;;;;;;15.10;11.97;;;7.50;98.70;;;;;;5133813;28;20931;-72
2021/01/28 02:55:59;;;;;;;15.90;11.40;;;7.60;98.80;;;;;;5133667;28;20511;-72
2021/01/28 02:58:26;;;;;;;17.17;12.03;;;7.50;98.70;;;;;;5133970;28;20438;-72
2021/01/28 03:00:53;;;;;;;16.53;10.30;;;7.50;98.70;;;;;;5133963;28;20438;-72
2021/01/28 03:03:19;;;;;;;16.23;10.60;;;7.60;98.80;;;;;;5133975;27;20445;-72
2021/01/28 03:05:45;;;;;;;14.70;11.03;;;7.60;98.70;;;;;;5137289;27;20531;-72
2021/01/28 03:08:11;;;;;;;12.43;10.33;;;7.60;98.60;;;;;;5137804;27;20481;-72
2021/01/28 03:10:38;;;;;;;9.60;8.60;;;7.60;98.80;;;;;;5137462;27;20442;-72
2021/01/28 03:13:04;;;;;;;14.30;9.20;;;7.60;98.70;;;;;;5137720;27;20437;-72
2021/01/28 03:15:30;;;;;;;12.83;8.00;;;7.60;98.70;;;;;;5137600;27;20468;-72
2021/01/28 03:17:57;;;;;;;12.57;8.27;;;7.60;98.70;;;;;;5137668;27;20438;-72
2021/01/28 03:20:24;;;;;;;10.80;8.07;;;7.60;98.80;;;;;;5137590;27;20445;-72
2021/01/28 03:22:51;;;;;;;11.83;7.50;;;7.60;98.80;;;;;;5137531;27;20446;-72
2021/01/28 03:25:19;;;;;;;11.10;8.00;;;7.60;98.70;;;;;;5137473;27;20569;-72
2021/01/28 03:27:46;;;;;;;9.47;8.33;;;7.60;98.70;;;;;;5137420;27;20473;-72
2021/01/28 03:30:15;;;;;;;12.83;8.67;;;7.60;98.60;;;;;;5137387;27;20449;-72
2021/01/28 03:32:41;;;;;;;13.53;9.70;;;7.70;98.60;;;;;;5137404;27;20442;-72
2021/01/28 03:35:09;;;;;;;13.43;9.63;;;7.70;98.40;;;;;;5137278;27;20462;-70
2021/01/28 03:37:35;;;;;;;11.53;9.87;;;7.70;98.30;;;;;;5137308;27;20449;-72
2021/01/28 03:40:02;;;;;;;14.40;10.27;;;7.70;98.30;;;;;;5136931;27;20445;-72
2021/01/28 03:42:28;;;;;;;16.37;10.40;;;7.70;98.20;;;;;;5137208;27;20445;-72
2021/01/28 03:44:54;;;;;;;14.47;10.00;;;7.70;98.20;;;;;;5137115;27;20461;-72
2021/01/28 03:47:20;;;;;;;15.70;10.43;;;7.70;98.10;;;;;;5136712;27;20434;-72
2021/01/28 03:49:46;;;;;;;17.87;9.17;;;7.60;98.10;;;;;;5137038;27;20434;-72
2021/01/28 03:52:13;;;;;;;11.60;9.90;;;7.60;98.10;;;;;;5137053;27;20434;-72
2021/01/28 03:54:40;;;;;;;20.37;10.50;;;7.60;98.10;;;;;;5136962;27;20480;-72
2021/01/28 03:57:06;;;;;;;13.30;9.43;;;7.60;98.10;;;;;;5136968;27;20494;-72
2021/01/28 03:59:32;;;;;;;12.00;8.53;;;7.60;98.20;;;;;;5136939;27;20433;-72
2021/01/28 04:01:58;;;;;;;14.43;9.33;;;7.60;98.10;;;;;;5136835;27;20904;-72
2021/01/28 04:04:24;;;;;;;13.50;8.83;;;7.60;98.10;;;;;;5136730;27;20438;-72
2021/01/28 04:06:51;;;;;;;10.13;8.23;;;7.60;98.10;;;;;;5136430;27;20457;-72
2021/01/28 04:09:18;;;;;;;11.07;8.23;;;7.70;98.10;;;;;;5136659;27;20478;-72
2021/01/28 04:11:44;;;;;;;9.93;8.20;;;7.70;98.00;;;;;;5136421;27;20441;-72
2021/01/28 04:14:10;;;;;;;11.30;8.67;;;7.70;97.90;;;;;;5136546;27;20438;-72
2021/01/28 04:16:36;;;;;;;11.07;8.00;;;7.70;97.80;;;;;;5136153;27;20464;-72
2021/01/28 04:19:03;;;;;;;10.50;8.20;;;7.70;97.80;;;;;;5136632;27;20439;-72
2021/01/28 04:21:29;;;;;;;9.60;6.97;;;7.70;97.70;;;;;;5136461;27;20449;-72
2021/01/28 04:23:56;;;;;;;13.53;8.10;;;7.70;97.60;;;;;;5136121;27;20452;-72
2021/01/28 04:26:23;;;;;;;18.30;8.73;;;7.70;97.50;;;;;;5136309;27;20468;-72
2021/01/28 04:28:49;;;;;;;12.03;7.30;;;7.70;97.50;;;;;;5136249;27;20496;-72
2021/01/28 04:31:16;;;;;;;10.47;7.40;;;7.70;97.50;;;;;;5136272;27;20857;-72
2021/01/28 04:33:42;;;;;;;12.00;7.13;;;7.70;97.40;;;;;;5136242;27;20446;-72
2021/01/28 04:36:08;;;;;;;8.60;7.70;;;7.70;97.40;;;;;;5136162;27;20512;-72
2021/01/28 04:38:34;;;;;;;8.77;7.70;;;7.70;97.50;;;;;;5135833;27;20853;-72
2021/01/28 04:41:08;;;;;;;14.70;9.30;;;7.70;97.50;;;;;;5136083;27;20441;-72
2021/01/28 04:43:35;;;;;;;15.20;10.80;;;7.60;97.60;;;;;;5136078;27;20460;-72
2021/01/28 04:46:04;;;;;;;15.87;10.33;;;7.60;97.80;;;;;;5135930;27;20458;-72
2021/01/28 04:48:32;;;;;;;14.63;10.10;;;7.50;97.90;;;;;;5135643;27;20477;-72
2021/01/28 04:51:00;;;;;;;11.77;8.40;;;7.60;98.00;;;;;;5135991;27;20422;-72
2021/01/28 04:53:33;;;;;;;11.33;8.40;;;7.60;98.10;;;;;;5135872;27;20442;-72
2021/01/28 04:56:03;;;;;;;12.10;7.37;;;7.50;98.10;;;;;;5135434;27;20977;-72
2021/01/28 04:58:29;;;;;;;8.20;6.80;;;7.50;98.10;;;;;;5136335;27;20430;-72
2021/01/28 05:00:56;;;;;;;7.77;6.53;;;7.50;98.20;;;;;;5135405;27;20449;-72
2021/01/28 05:03:26;;;;;;;9.50;6.07;;;7.50;98.10;;;;;;5135623;27;20442;-72
2021/01/28 05:05:54;;;;;;;7.50;6.70;;;7.50;98.10;;;;;;5135297;27;20550;-72
2021/01/28 05:08:21;;;;;;;9.03;6.70;;;7.50;98.10;;;;;;5135163;27;20819;-72
2021/01/28 05:10:49;;;;;;;8.40;6.87;;;7.60;98.00;;;;;;5135545;27;20442;-72
2021/01/28 05:13:26;;;;;;;8.60;6.97;;;7.60;98.00;;;;;;5135166;27;20438;-72
2021/01/28 05:15:53;;;;;;;10.33;8.00;;;7.60;97.90;;;;;;5135388;27;20466;-72
2021/01/28 05:18:27;;;;;;;8.70;7.53;;;7.60;97.90;;;;;;5135371;27;20438;-72
2021/01/28 05:21:03;;;;;;;8.97;7.20;;;7.60;97.80;;;;;;5135725;27;20425;-72
2021/01/28 05:23:32;;;;;;;8.83;7.30;;;7.60;97.70;;;;;;5135460;27;20430;-72
2021/01/28 05:25:59;;;;;;;8.70;6.73;;;7.60;97.70;;;;;;5135003;27;20458;-72
2021/01/28 05:28:33;;;;;;;8.60;6.80;;;7.60;97.60;;;;;;5134270;27;21069;-72
2021/01/28 05:31:00;;;;;;;8.20;7.00;;;7.60;97.60;;;;;;5135156;27;20441;-72
2021/01/28 05:33:40;;;;;;;10.80;6.87;;;7.60;97.50;;;;;;5135109;27;20430;-72
2021/01/28 05:36:12;;;;;;;8.20;7.20;;;7.60;97.50;;;;;;5134752;27;20977;-72
2021/01/28 05:38:41;;;;;;;7.40;6.60;;;7.60;97.40;;;;;;5135063;27;20429;-72
2021/01/28 05:41:10;;;;;;;8.20;6.90;;;7.60;97.40;;;;;;5134905;27;20442;-72
2021/01/28 05:43:39;;;;;;;9.67;7.10;;;7.60;97.30;;;;;;5134925;27;20422;-72
2021/01/28 05:46:18;;;;;;;10.53;7.17;;;7.60;97.30;;;;;;5134504;27;20465;-72
2021/01/28 05:48:59;;;;;;;6.87;6.17;;;7.60;97.30;;;;;;5134816;27;20469;-72
2021/01/28 05:51:25;;;;;;;6.60;5.90;;;7.60;97.20;;;;;;5134859;27;20452;-72
2021/01/28 05:54:00;;;;;;;6.30;5.20;;;7.60;97.20;;;;;;5134771;27;20438;-72
2021/01/28 05:56:30;;;;;;;6.80;5.73;;;7.60;97.20;;;;;;5134363;27;21043;-72
2021/01/28 05:59:05;;;;;;;7.90;6.00;;;7.60;97.20;;;;;;5134802;27;20419;-72
2021/01/28 06:01:45;;;;;;;6.50;5.80;;;7.60;97.10;;;;;;5134634;27;20424;-71
2021/01/28 06:04:27;;;;;;;8.10;4.93;;;7.60;97.10;;;;;;5134102;27;20426;-72
2021/01/28 06:07:25;;;;;;;5.33;4.83;;;7.60;97.10;;;;;;5134232;27;20449;-72
2021/01/28 06:10:27;;;;;;;5.23;4.73;;;7.60;97.10;;;;;;5134462;27;20481;-72
2021/01/28 06:13:32;;;;;;;4.50;4.10;;;7.60;97.10;;;;;;5081320;27;20440;-72
2021/01/28 06:16:07;;;;;;;5.00;4.00;;;7.60;97.00;;;;;;5097864;27;20465;-72
2021/01/28 06:19:07;;;;;;;6.70;4.60;;;7.60;97.00;;;;;;5134487;28;20422;-72
2021/01/28 06:21:59;;;;;;;7.40;4.80;;;7.60;97.10;;;;;;5100283;28;20923;-72
2021/01/28 06:24:59;;;;;;;5.33;4.83;;;7.60;97.00;;;;;;5134375;28;20434;-72
2021/01/28 06:27:46;;;;;;;4.90;4.40;;;7.50;97.00;;;;;;5134106;28;20427;-72
2021/01/28 06:30:22;;;;;;;5.60;4.77;;;7.50;97.00;;;;;;5134342;28;20422;-72
2021/01/28 06:33:08;;;;;;;7.03;4.90;;;7.50;97.00;;;;;;5134526;28;20560;-72
2021/01/28 06:35:48;;;;;;;6.03;5.27;;;7.50;97.00;;;;;;5133952;28;20808;-72
2021/01/28 06:38:30;;;;;;;6.30;5.70;;;7.50;97.00;;;;;;5135624;27;20429;-72
2021/01/28 06:41:01;;;;;;;6.13;5.53;;;7.50;97.00;;;;;;5138500;27;20421;-72
2021/01/28 06:43:33;;;;;;;7.03;6.17;;;7.50;97.00;;;;;;5138513;27;20429;-72
2021/01/28 06:46:05;;;;;;;7.63;6.13;;;7.50;97.00;;;;;;5138262;27;20831;-72
2021/01/28 06:48:39;;;;;;;6.53;5.27;;;7.50;97.00;;;;;;5139101;27;20458;-72
2021/01/28 06:51:12;;;;;;;7.40;6.37;;;7.50;97.00;;;;;;5138310;27;20430;-72
2021/01/28 06:53:46;;;;;;;6.53;5.83;;;7.50;97.00;;;;;;5138267;27;20833;-72
2021/01/28 06:56:21;;;;;;;7.77;6.07;;;7.50;97.00;;;;;;5137789;27;20462;-72
2021/01/28 06:59:01;;;;;;;7.40;5.33;;;7.50;97.00;;;;;;5138155;27;20428;-72
2021/01/28 07:01:35;;;;;;;8.93;5.93;;;7.40;96.90;;;;;;5138077;27;20422;-72
2021/01/28 07:04:12;;;;;;;5.70;4.43;;;7.40;96.90;;;;;;5138051;27;20433;-72
2021/01/28 07:06:44;;;;;;;6.70;5.80;;;7.40;96.90;;;;;;5137670;27;20453;-72
2021/01/28 07:09:26;;;;;;;7.13;6.10;;;7.40;96.90;;;;;;5137847;27;20463;-72
2021/01/28 07:11:55;;;;;;;7.07;5.53;;;7.40;96.90;;;;;;5137867;27;20478;-72
2021/01/28 07:14:22;;;;;;;6.73;5.50;;;7.40;96.90;;;;;;5137702;27;20438;-72
2021/01/28 07:16:56;;;;;;;6.10;5.17;;;7.40;96.90;;;;;;5137338;27;20955;-72
2021/01/28 07:19:26;;;;;;;5.63;5.10;;;7.40;96.80;;;;;;5137663;27;20425;-72
2021/01/28 07:21:54;;;;;;;6.50;4.70;;;7.40;96.80;;;;;;5138360;27;20437;-72
2021/01/28 07:24:34;;;;;;;6.00;5.50;;;7.40;96.80;;;;;;5137657;27;20426;-73
2021/01/28 07:27:02;;;;;;;6.60;5.40;;;7.40;96.80;;;;;;5137590;27;20433;-70
2021/01/28 07:29:54;;;;;;;7.93;5.70;;;7.40;96.80;;;;;;5137434;27;20469;-72
2021/01/28 07:32:49;;;;;;;6.00;4.90;;;7.40;96.90;;;;;;5137555;27;20465;-72
2021/01/28 07:35:42;;;;;;;6.30;5.27;;;7.40;96.90;;;;;;5137325;27;20469;-72
2021/01/28 07:38:45;;;;;;;6.37;5.70;;;7.40;96.90;;;;;;5137365;27;20483;-72
2021/01/28 07:41:22;;;;;;;6.77;5.57;;;7.40;96.90;;;;;;5137366;27;20449;-72
2021/01/28 07:43:50;;;;;;;5.67;5.07;;;7.40;96.90;;;;;;5137311;27;20430;-72
2021/01/28 07:46:19;;;;;;;6.83;5.70;;;7.40;96.80;;;;;;5137277;27;20831;-72
2021/01/28 07:48:47;;;;;;;8.27;5.30;;;7.40;96.80;;;;;;5137080;27;20481;-72
2021/01/28 07:51:31;;;;;;;6.73;6.03;;;7.40;96.80;;;;;;5135912;27;20936;-72
2021/01/28 07:53:58;;;;;;;6.67;6.00;;;7.40;96.90;;;;;;5137135;27;20503;-72
2021/01/28 07:56:57;;;;;;;7.73;6.30;;;7.40;96.80;;;;;;5136986;27;20466;-72
2021/01/28 07:59:40;;;;;;;7.63;6.07;;;7.40;96.90;;;;;;5136959;27;20474;-72
2021/01/28 08:02:23;;;;;;;8.40;6.37;;;7.40;96.90;;;;;;5134349;27;20446;-72
2021/01/28 08:04:55;;;;;;;9.87;6.57;;;7.40;96.90;;;;;;5134458;27;20492;-72
2021/01/28 08:07:25;;;;;;;7.90;6.57;;;7.40;96.90;;;;;;5136800;27;20426;-72
2021/01/28 08:09:53;;;;;;;10.07;6.53;;;7.40;96.90;;;;;;5136791;27;20470;-72
2021/01/28 08:12:23;;;;;;;8.17;7.37;;;7.40;96.90;;;;;;5136996;27;20446;-71
2021/01/28 08:14:52;;;;;;;7.37;6.00;;;7.40;96.90;;;;;;5137022;27;20462;-72
2021/01/28 08:17:22;;;;;;;8.27;6.57;;;7.40;96.90;;;;;;5136697;27;20457;-72
2021/01/28 08:19:49;;;;;;;8.63;6.20;;;7.40;97.00;;;;;;5136621;27;20422;-72
2021/01/28 08:22:17;;;;;;;9.40;6.73;;;7.40;96.90;;;;;;5136505;27;20449;-72
2021/01/28 08:24:53;;;;;;;8.43;7.63;;;7.40;96.90;;;;;;5136318;27;20466;-72
2021/01/28 08:27:27;;;;;;;7.67;6.97;;;7.40;97.30;;;;;;5136388;27;20437;-72
2021/01/28 08:30:05;;;;;;;8.33;7.03;;;7.40;96.90;;;;;;5136274;27;20463;-72
2021/01/28 08:32:32;;;;;;;6.73;5.73;;;7.40;96.90;;;;;;5136249;27;20521;-72
2021/01/28 08:35:00;;;;;;;8.17;6.20;;;7.40;96.90;;;;;;5136249;27;20477;-72
2021/01/28 08:37:30;;;;;;;7.20;6.20;;;7.40;96.90;;;;;;5136218;27;20449;-72
2021/01/28 08:39:57;;;;;;;8.90;6.50;;;7.40;96.90;;;;;;5136163;27;20422;-72
2021/01/28 08:42:26;;;;;;;6.80;5.90;;;7.40;96.90;;;;;;5136121;27;20449;-72
2021/01/28 08:45:09;;;;;;;6.17;5.57;;;7.40;96.90;;;;;;5135996;27;20469;-72
2021/01/28 08:47:36;;;;;;;5.33;4.83;;;7.40;96.90;;;;;;5136082;27;20429;-72
2021/01/28 08:50:07;;;;;;;5.80;4.80;;;7.40;96.90;;;;;;5135835;27;20474;-72
2021/01/28 08:52:35;;;;;;;6.63;5.07;;;7.40;96.90;;;;;;5135865;27;20900;-72
2021/01/28 08:55:09;;;;;;;7.60;5.43;;;7.40;96.80;;;;;;5135826;27;20557;-72
2021/01/28 08:57:37;;;;;;;4.97;4.40;;;7.40;96.80;;;;;;5135809;27;20417;-73
2021/01/28 09:00:09;;;;;;;7.57;5.53;;;7.40;96.80;;;;;;5135816;27;20422;-72
2021/01/28 09:02:38;;;;;;;6.77;5.10;;;7.40;96.80;;;;;;5135755;27;20434;-72
2021/01/28 09:05:15;;;;;;;5.67;5.10;;;7.40;96.80;;;;;;5135465;27;20535;-72
2021/01/28 09:07:48;;;;;;;8.40;5.30;;;7.40;96.80;;;;;;5135693;27;20433;-73
2021/01/28 09:10:24;;;;;;;5.90;5.30;;;7.40;96.80;;;;;;5135529;27;20488;-73
2021/01/28 09:12:51;;;;;;;6.80;6.10;;;7.40;96.90;;;;;;5135650;27;20437;-72
2021/01/28 09:15:21;;;;;;;5.70;5.10;;;7.40;96.90;;;;;;5135187;27;20522;-72
2021/01/28 09:17:48;;;;;;;6.50;5.20;;;7.40;96.80;;;;;;5135466;27;20445;-72
2021/01/28 09:20:28;;;;;;;6.63;5.00;;;7.50;96.90;;;;;;5135044;27;20919;-72
2021/01/28 09:23:06;;;;;;;6.17;5.20;;;7.50;96.90;;;;;;5135381;27;20822;-73
2021/01/28 09:25:33;;;;;;;4.90;4.40;;;7.50;96.90;;;;;;5135230;27;20461;-72
2021/01/28 09:28:01;;;;;;;5.67;4.63;;;7.50;96.90;;;;;;5134822;27;20445;-73
2021/01/28 09:30:32;;;;;;;5.20;4.30;;;7.50;96.90;;;;;;5135166;27;20466;-73
2021/01/28 09:32:59;;;;;;;5.93;5.27;;;7.50;96.90;;;;;;5135266;27;20774;-72
2021/01/28 09:35:26;;;;;;;6.07;5.47;;;7.50;96.80;;;;;;5135080;27;20466;-72
2021/01/28 09:38:06;;;;;;;6.70;6.00;;;7.50;96.80;;;;;;5135159;27;20438;-73
2021/01/28 09:40:36;;;;;;;5.73;5.00;;;7.60;96.80;;;;;;5135060;27;20491;-72
2021/01/28 09:43:26;;;;;;;6.20;5.60;;;7.50;96.80;;;;;;5135046;27;20433;-72
2021/01/28 09:46:11;;;;;;;6.53;5.87;;;7.60;96.70;;;;;;5134833;27;20466;-72
2021/01/28 09:48:37;;;;;;;6.53;5.90;;;7.60;96.70;;;;;;5134905;27;20466;-72
2021/01/28 09:51:04;;;;;;;7.73;6.50;;;7.60;96.60;;;;;;5134930;27;20437;-72
2021/01/28 09:53:31;;;;;;;6.57;5.87;;;7.60;96.60;;;;;;5134822;27;20441;-73
2021/01/28 09:55:57;;;;;;;8.00;6.53;;;7.60;96.70;;;;;;5134725;27;20469;-73
2021/01/28 09:58:24;;;;;;;6.07;5.50;;;7.60;96.60;;;;;;5134503;27;20770;-73
2021/01/28 10:00:50;;;;;;;5.20;4.80;;;7.60;96.60;;;;;;5134700;27;20450;-72
2021/01/28 10:03:17;;;;;;;5.70;5.20;;;7.60;96.70;;;;;;5134692;27;20449;-73
2021/01/28 10:05:43;;;;;;;4.70;4.30;;;7.60;96.70;;;;;;5134887;27;20474;-73
2021/01/28 10:08:09;;;;;;;5.13;4.57;;;7.60;96.60;;;;;;5134225;27;20437;-73
2021/01/28 10:10:38;;;;;;;4.80;4.30;;;7.60;96.60;;;;;;5134639;27;20446;-72
2021/01/28 10:13:08;;;;;;;5.30;4.40;;;7.70;96.70;;;;;;5134149;27;20437;-73
2021/01/28 10:15:35;;;;;;;3.80;3.50;;;7.70;96.60;;;;;;5134532;27;20462;-73
2021/01/28 10:18:02;;;;;;;3.83;3.30;;;7.70;96.60;;;;;;5134524;27;20437;-72
2021/01/28 10:20:28;;;;;;;3.27;2.97;;;7.70;96.60;;;;;;5134170;27;20955;-73
2021/01/28 10:22:58;;;;;;;3.47;3.17;;;7.80;96.60;;;;;;5134168;28;20970;-73
2021/01/28 10:25:24;;;;;;;3.20;3.00;;;7.80;96.60;;;;;;5134374;28;20462;-72
2021/01/28 10:27:50;;;;;;;3.37;3.10;;;7.80;96.50;;;;;;5134411;28;20449;-71
2021/01/28 10:30:18;;;;;;;3.47;3.17;;;7.90;96.50;;;;;;5134348;28;20489;-72
2021/01/28 10:32:47;;;;;;;3.20;2.57;;;7.90;96.40;;;;;;5134372;28;20453;-72
2021/01/28 10:35:16;;;;;;;3.27;2.60;;;8.00;96.40;;;;;;5134296;28;20469;-73
2021/01/28 10:37:42;;;;;;;2.70;2.50;;;8.00;96.30;;;;;;5135074;28;20446;-71
2021/01/28 10:40:09;;;;;;;3.17;2.87;;;8.00;96.20;;;;;;5133985;28;20442;-72
2021/01/28 10:42:40;;;;;;;3.30;2.83;;;8.10;96.20;;;;;;5134391;28;20426;-73
2021/01/28 10:45:08;;;;;;;3.20;2.90;;;8.10;96.20;;;;;;5134240;28;20472;-71
2021/01/28 10:47:34;;;;;;;5.03;2.57;;;8.10;96.10;;;;;;5134231;28;20446;-71
2021/01/28 10:50:01;;;;;;;3.43;3.10;;;8.10;96.10;;;;;;5134157;28;20454;-72
2021/01/28 10:52:27;;;;;;;2.97;2.77;;;8.20;96.10;;;;;;5133819;28;20448;-72
2021/01/28 10:54:54;;;;;;;4.53;3.53;;;8.20;96.10;;;;;;5134025;28;20473;-71
2021/01/28 10:57:20;;;;;;;5.10;3.67;;;8.20;96.00;;;;;;5134086;28;20442;-71
2021/01/28 10:59:46;;;;;;;2.87;2.37;;;8.20;95.90;;;;;;5133765;28;20893;-72
2021/01/28 11:02:12;;;;;;;2.90;2.70;;;8.30;95.90;;;;;;5134073;28;20500;-72
2021/01/28 11:04:38;;;;;;;3.80;3.50;;;8.30;95.80;;;;;;5133609;28;21007;-72
2021/01/28 11:07:05;;;;;;;3.00;2.60;;;8.30;95.60;;;;;;5134421;28;20434;-71
2021/01/28 11:09:32;;;;;;;3.40;3.10;;;8.30;95.50;;;;;;5134313;28;20481;-72
2021/01/28 11:11:58;;;;;;;7.60;3.43;;;8.30;95.40;;;;;;5134488;28;20442;-71
2021/01/28 11:14:25;;;;;;;3.70;3.40;;;8.30;95.40;;;;;;5134059;28;20429;-71
2021/01/28 11:16:51;;;;;;;2.83;2.63;;;8.40;95.50;;;;;;5133995;28;20446;-71
2021/01/28 11:19:17;;;;;;;3.20;2.90;;;8.40;95.60;;;;;;5133920;28;20429;-71
2021/01/28 11:21:43;;;;;;;3.50;3.03;;;8.50;95.60;;;;;;5133934;28;20557;-71
2021/01/28 11:24:12;;;;;;;7.40;2.97;;;8.50;95.50;;;;;;5133900;27;20801;-72
2021/01/28 11:26:38;;;;;;;3.03;2.83;;;8.60;95.50;;;;;;5137145;27;20832;-71
2021/01/28 11:29:06;;;;;;;3.60;3.10;;;8.60;95.40;;;;;;5137476;27;20473;-73
2021/01/28 11:31:33;;;;;;;3.00;2.80;;;8.60;95.30;;;;;;5137446;27;20449;-73
2021/01/28 11:33:59;;;;;;;2.80;2.43;;;8.70;95.20;;;;;;5137103;27;20437;-73
2021/01/28 11:36:25;;;;;;;3.57;3.27;;;8.70;95.10;;;;;;5137402;27;20472;-73
2021/01/28 11:38:51;;;;;;;3.63;3.30;;;8.70;95.00;;;;;;5137384;27;20441;-73
2021/01/28 11:41:18;;;;;;;3.20;2.90;;;8.70;95.00;;;;;;5137277;27;20438;-73
2021/01/28 11:43:44;;;;;;;3.57;2.80;;;8.70;95.00;;;;;;5136854;27;20442;-73
2021/01/28 11:46:11;;;;;;;3.33;3.03;;;8.70;95.00;;;;;;5137163;27;20518;-72
2021/01/28 11:48:37;;;;;;;2.50;2.30;;;8.70;95.00;;;;;;5137129;27;20477;-73
2021/01/28 11:51:03;;;;;;;2.87;2.67;;;8.70;95.00;;;;;;5137166;27;20430;-73
2021/01/28 11:53:30;;;;;;;2.43;2.23;;;8.70;95.10;;;;;;5137002;27;20494;-73
2021/01/28 11:55:56;;;;;;;2.67;2.47;;;8.70;95.10;;;;;;5136980;27;20458;-73
2021/01/28 11:58:23;;;;;;;3.47;2.50;;;8.80;95.10;;;;;;5137016;27;20822;-73
2021/01/28 12:00:50;;;;;;;2.30;2.10;;;8.80;95.20;;;;;;5137035;27;20426;-73
2021/01/28 12:03:16;;;;;;;1.80;1.70;;;8.90;95.20;;;;;;5136907;27;20806;-73
2021/01/28 12:05:43;;;;;;;3.50;2.20;;;9.00;95.10;;;;;;5136528;27;20470;-73
2021/01/28 12:08:09;;;;;;;1.80;1.70;;;9.00;95.10;;;;;;5136660;27;20813;-72
2021/01/28 12:10:35;;;;;;;2.43;2.23;;;9.10;95.00;;;;;;5136759;27;20438;-73
2021/01/28 12:13:01;;;;;;;3.37;1.60;;;9.10;94.80;;;;;;5136742;27;20446;-73
2021/01/28 12:15:29;;;;;;;1.90;1.70;;;9.10;94.70;;;;;;5136586;27;20462;-73
2021/01/28 12:17:55;;;;;;;2.30;1.60;;;9.10;94.60;;;;;;5136638;27;20499;-73
2021/01/28 12:20:24;;;;;;;2.83;2.63;;;9.10;94.50;;;;;;5136554;27;20435;-73
2021/01/28 12:22:50;;;;;;;2.10;1.90;;;9.10;94.40;;;;;;5136494;27;20448;-73
2021/01/28 12:25:16;;;;;;;1.70;1.60;;;9.10;94.50;;;;;;5136088;27;20458;-73
2021/01/28 12:27:43;;;;;;;1.80;1.70;;;9.20;94.60;;;;;;5136373;27;20448;-73
2021/01/28 12:30:11;;;;;;;1.93;1.80;;;9.20;94.60;;;;;;5135986;27;20477;-73
2021/01/28 12:32:39;;;;;;;1.50;1.40;;;9.20;94.50;;;;;;5135958;27;20469;-72
2021/01/28 12:35:07;;;;;;;1.60;1.50;;;9.30;94.50;;;;;;5136364;27;20469;-73
2021/01/28 12:37:33;;;;;;;2.33;2.13;;;9.30;94.40;;;;;;5135620;27;20426;-73
2021/01/28 12:39:59;;;;;;;3.50;1.60;;;9.30;94.40;;;;;;5136226;27;20442;-73
2021/01/28 12:42:27;;;;;;;1.87;1.77;;;9.40;94.50;;;;;;5135839;27;20443;-73
2021/01/28 12:44:54;;;;;;;2.30;1.80;;;9.50;94.50;;;;;;5135722;27;20462;-73
2021/01/28 12:47:20;;;;;;;2.03;1.87;;;9.50;94.40;;;;;;5136020;27;20442;-73
2021/01/28 12:49:47;;;;;;;3.07;1.53;;;9.60;94.40;;;;;;5135944;27;20500;-73
2021/01/28 12:52:14;;;;;;;1.40;1.30;;;9.60;94.30;;;;;;5136001;27;20487;-73
2021/01/28 12:54:41;;;;;;;2.20;2.00;;;9.60;94.20;;;;;;5135558;27;20491;-73
2021/01/28 12:57:07;;;;;;;2.27;2.07;;;9.60;94.20;;;;;;5135565;27;20852;-73
2021/01/28 12:59:33;;;;;;;1.80;1.70;;;9.60;94.20;;;;;;5135864;27;20445;-73
2021/01/28 13:02:00;;;;;;;1.83;1.73;;;9.60;94.10;;;;;;5135762;27;20422;-73
2021/01/28 13:04:26;;;;;;;1.77;1.57;;;9.60;94.10;;;;;;5135439;27;20445;-73